Time;durP1;ratioP1;P1;durP2;ratioP2;P2;SDS_P1;SDS_P2;PMS_P1;PMS_P2;Temp;Humidity;BMP_temperature;BMP_pressure;BME280_temperature;BME280_humidity;BME280_pressure;Samples;Min_cycle;Max_cycle;Signal;HPM_P1;HPM_P2
2022/02/03 00:02:19;;;;;;;24.52;14.07;;;;;;;0.79;100.00;98480.94;1690890;84;21628;-60
2022/02/03 00:04:34;;;;;;;22.45;13.85;;;;;;;0.79;100.00;98488.97;1681138;84;21185;-60
2022/02/03 00:07:03;;;;;;;18.82;12.13;;;;;;;0.84;100.00;98490.42;1690459;84;21051;-60
2022/02/03 00:25:36;;;;;;;21.85;14.03;;;;;;;0.88;100.00;98486.22;1658939;85;21119;-58
2022/02/03 00:28:23;;;;;;;23.32;13.10;;;;;;;0.90;100.00;98486.77;1679733;85;21016;-59
2022/02/03 00:33:25;;;;;;;;;;;;;;;0.93;100.00;98494.85;1673138;85;21004;-59
2022/02/03 00:49:05;;;;;;;22.52;12.50;;;;;;;0.99;100.00;98489.89;1668164;85;21087;-59
2022/02/03 00:51:33;;;;;;;21.95;13.20;;;;;;;1.04;100.00;98485.95;1666299;85;21048;-59
2022/02/03 00:53:59;;;;;;;20.30;13.15;;;;;;;1.04;100.00;98489.15;1686756;85;21119;-59
2022/02/03 00:56:36;;;;;;;18.90;12.03;;;;;;;0.97;100.00;98483.95;1669071;85;21078;-60
2022/02/03 00:59:11;;;;;;;20.55;13.00;;;;;;;0.95;100.00;98484.20;1665923;85;21076;-59
2022/02/03 01:01:43;;;;;;;27.80;14.80;;;;;;;0.94;100.00;98495.97;1680956;85;21056;-59
2022/02/03 01:04:12;;;;;;;23.52;13.18;;;;;;;0.96;100.00;98489.83;1666323;85;21087;-59
2022/02/03 01:06:49;;;;;;;23.47;13.40;;;;;;;1.03;100.00;98485.66;1679519;85;21867;-59
2022/02/03 01:09:12;;;;;;;27.35;13.65;;;;;;;1.06;100.00;98483.86;1666071;84;21163;-59
2022/02/03 01:11:43;;;;;;;22.70;12.78;;;;;;;1.06;100.00;98489.22;1675887;85;21082;-59
2022/02/03 01:14:12;;;;;;;25.00;13.28;;;;;;;1.06;100.00;98488.41;1669448;84;21139;-59
2022/02/03 01:19:30;;;;;;;22.85;12.75;;;;;;;1.08;100.00;98480.40;1673876;85;21103;-59
2022/02/03 01:43:20;;;;;;;22.93;13.72;;;;;;;1.05;100.00;98502.84;1671418;85;21059;-60
2022/02/03 01:43:28;;;;;;;21.68;13.22;;;;;;;1.06;100.00;98497.27;1663967;85;21483;-60
2022/02/03 01:45:55;;;;;;;26.93;14.00;;;;;;;1.01;100.00;98491.80;1679963;83;21094;-60
2022/02/03 01:48:42;;;;;;;24.57;14.07;;;;;;;0.97;100.00;98496.00;1677288;85;21346;-60
2022/02/03 01:53:51;;;;;;;20.35;12.53;;;;;;;1.07;100.00;98507.42;1672042;84;21001;-60
2022/02/03 01:56:20;;;;;;;22.35;13.35;;;;;;;1.05;100.00;98503.66;1671319;85;21060;-60
2022/02/03 01:58:58;;;;;;;21.07;12.18;;;;;;;1.04;100.00;98499.34;1689339;85;21036;-60
2022/02/03 02:01:27;;;;;;;19.82;11.45;;;;;;;1.08;100.00;98502.36;1675661;85;21011;-60
2022/02/03 02:04:19;;;;;;;22.75;12.40;;;;;;;1.12;100.00;98504.33;1681160;85;21447;-60
2022/02/03 02:06:54;;;;;;;23.15;13.58;;;;;;;1.12;100.00;98502.98;1667382;85;21106;-60
2022/02/03 02:10:01;;;;;;;20.95;12.55;;;;;;;1.06;100.00;98500.46;1671309;85;21615;-59
2022/02/03 02:13:20;;;;;;;21.50;12.65;;;;;;;1.03;100.00;98501.73;1668971;85;21135;-60
2022/02/03 02:16:13;;;;;;;22.05;12.07;;;;;;;1.09;100.00;98499.45;1676453;84;21071;-60
2022/02/03 02:18:56;;;;;;;20.32;12.63;;;;;;;1.15;100.00;98506.52;1671014;85;21531;-60
2022/02/03 02:43:58;;;;;;;19.00;12.10;;;;;;;1.07;100.00;98516.28;1665839;85;21011;-59
2022/02/03 02:46:39;;;;;;;19.45;12.20;;;;;;;1.13;100.00;98514.53;1672598;85;21019;-59
2022/02/03 02:49:28;;;;;;;20.40;12.85;;;;;;;1.11;100.00;98516.62;1682147;85;21119;-59
2022/02/03 02:52:10;;;;;;;21.48;12.85;;;;;;;1.09;100.00;98520.89;1695878;83;21421;-59
2022/02/03 03:35:58;;;;;;;21.87;13.03;;;;;;;1.01;100.00;98530.66;1680421;84;21078;-60
2022/02/03 03:38:34;;;;;;;21.17;12.90;;;;;;;0.97;100.00;98534.34;1658543;85;21513;-61
2022/02/03 03:41:01;;;;;;;20.52;12.50;;;;;;;1.04;100.00;98538.20;1702609;84;21448;-60
2022/02/03 03:43:48;;;;;;;20.75;12.37;;;;;;;1.10;100.00;98539.92;1667793;85;21010;-61
2022/02/03 03:46:32;;;;;;;20.92;13.13;;;;;;;1.12;100.00;98545.87;1696001;84;21030;-60
2022/02/03 03:49:21;;;;;;;21.20;12.95;;;;;;;1.10;100.00;98547.96;1658801;85;21729;-61
2022/02/03 03:51:57;;;;;;;20.40;13.03;;;;;;;1.06;100.00;98546.02;1670627;85;21042;-60
2022/02/03 03:54:36;;;;;;;16.93;11.90;;;;;;;1.07;100.00;98551.13;1677151;84;21650;-60
2022/02/03 04:00:20;;;;;;;19.95;12.53;;;;;;;1.17;100.00;98554.55;1673945;85;21138;-60
2022/02/03 04:33:17;;;;;;;18.85;11.65;;;;;;;0.92;100.00;98587.81;1724718;82;21133;-59
2022/02/03 04:36:53;;;;;;;18.55;11.25;;;;;;;0.90;100.00;98590.45;1732983;82;21059;-59
2022/02/03 04:40:48;;;;;;;15.85;10.60;;;;;;;0.92;100.00;98586.48;1668612;83;21066;-59
2022/02/03 05:00:17;;;;;;;17.07;11.00;;;;;;;0.88;100.00;98605.45;1727911;82;21137;-59
2022/02/03 05:05:34;;;;;;;15.43;10.13;;;;;;;0.97;100.00;98608.03;1726057;82;21362;-59
2022/02/03 05:44:47;;;;;;;14.55;9.40;;;;;;;1.20;100.00;98672.83;1696522;84;21230;-58
2022/02/03 05:55:13;;;;;;;14.63;9.65;;;;;;;1.20;100.00;98670.67;1721502;83;21648;-58
2022/02/03 06:08:28;;;;;;;11.95;8.93;;;;;;;1.28;100.00;98691.20;1697759;84;21530;-60
2022/02/03 06:13:53;;;;;;;10.82;7.85;;;;;;;1.40;100.00;98700.05;1725144;82;20995;-61
2022/02/03 06:21:29;;;;;;;10.53;7.87;;;;;;;1.41;100.00;98714.27;1690666;84;21024;-59
2022/02/03 06:24:09;;;;;;;10.18;7.78;;;;;;;1.44;100.00;98714.61;1695567;83;21091;-58
2022/02/03 06:29:22;;;;;;;11.73;8.08;;;;;;;1.44;100.00;98713.27;1714373;83;21180;-58
2022/02/03 06:31:51;;;;;;;10.18;8.20;;;;;;;1.44;100.00;98711.93;1709705;83;21034;-58
2022/02/03 06:34:19;;;;;;;10.72;8.15;;;;;;;1.47;100.00;98708.77;1708298;82;21541;-59
2022/02/03 06:36:45;;;;;;;10.85;7.72;;;;;;;1.53;100.00;98716.90;1715727;83;21070;-59
2022/02/03 06:39:21;;;;;;;10.82;8.58;;;;;;;1.56;100.00;98717.79;1630577;86;21118;-59
2022/02/03 06:41:53;;;;;;;10.90;8.13;;;;;;;1.53;100.00;98723.08;1697147;83;21054;-59
2022/02/03 06:44:23;;;;;;;10.70;9.23;;;;;;;1.53;100.00;98731.13;1616035;89;21078;-60
2022/02/03 06:47:00;;;;;;;11.68;8.40;;;;;;;1.58;100.00;98731.77;1675008;86;21083;-60
2022/02/03 06:49:30;;;;;;;11.15;8.93;;;;;;;1.61;100.00;98736.65;1614641;88;21087;-60
2022/02/03 06:51:59;;;;;;;10.58;8.48;;;;;;;1.64;100.00;98736.98;1676957;84;21693;-60
2022/02/03 06:57:03;;;;;;;10.98;8.63;;;;;;;1.62;100.00;98745.00;1686479;85;21102;-59
2022/02/03 06:59:43;;;;;;;12.82;8.38;;;;;;;1.67;100.00;98754.47;1685499;84;21535;-60
2022/02/03 07:01:59;;;;;;;10.05;8.15;;;;;;;1.65;100.00;98753.91;1710927;84;21087;-59
2022/02/03 07:04:28;;;;;;;13.00;9.23;;;;;;;1.62;100.00;98753.86;1710733;83;21134;-59
2022/02/03 07:06:54;;;;;;;12.90;8.70;;;;;;;1.55;100.00;98757.73;1719122;83;21124;-59
2022/02/03 07:09:21;;;;;;;11.22;8.35;;;;;;;1.43;100.00;98764.45;1718985;82;21062;-60
2022/02/03 07:11:48;;;;;;;11.15;7.97;;;;;;;1.38;100.00;98759.00;1718980;83;21050;-60
2022/02/03 07:14:14;;;;;;;11.97;8.70;;;;;;;1.37;100.00;98765.41;1719190;82;21691;-61
2022/02/03 07:16:50;;;;;;;11.80;9.25;;;;;;;1.35;100.00;98772.84;1719145;83;21114;-60
2022/02/03 07:19:13;;;;;;;12.70;9.35;;;;;;;1.33;100.00;98770.94;1719056;82;21070;-59
2022/02/03 07:21:40;;;;;;;15.20;11.57;;;;;;;1.27;100.00;98774.58;1718976;83;21047;-60
2022/02/03 07:24:06;;;;;;;16.75;12.80;;;;;;;1.26;100.00;98776.44;1719496;83;21097;-60
2022/02/03 07:26:33;;;;;;;18.05;12.63;;;;;;;1.29;100.00;98781.33;1719113;83;21066;-60
2022/02/03 07:28:59;;;;;;;18.42;13.62;;;;;;;1.27;100.00;98788.80;1719126;82;21011;-60
2022/02/03 07:31:27;;;;;;;17.80;12.65;;;;;;;1.27;100.00;98786.12;1700872;83;21094;-60
2022/02/03 07:33:57;;;;;;;17.60;12.20;;;;;;;1.27;100.00;98792.00;1696902;84;21597;-61
2022/02/03 07:36:21;;;;;;;14.07;10.45;;;;;;;1.29;100.00;98796.07;1697677;84;21042;-61
2022/02/03 07:38:48;;;;;;;16.62;10.98;;;;;;;1.29;100.00;98792.05;1697361;84;21023;-61
2022/02/03 07:41:14;;;;;;;13.62;9.75;;;;;;;1.30;100.00;98801.73;1697910;84;21034;-61
2022/02/03 07:43:41;;;;;;;10.72;8.30;;;;;;;1.30;100.00;98799.57;1697409;84;21007;-60
2022/02/03 07:46:07;;;;;;;12.73;8.88;;;;;;;1.31;100.00;98803.34;1698111;84;21043;-60
2022/02/03 07:48:34;;;;;;;10.00;6.53;;;;;;;1.32;100.00;98806.33;1687676;84;20964;-61
2022/02/03 07:51:00;;;;;;;9.55;6.33;;;;;;;1.31;100.00;98810.05;1682579;85;21047;-58
2022/02/03 07:53:26;;;;;;;9.05;6.60;;;;;;;1.33;100.00;98813.33;1692837;84;21007;-62
2022/02/03 07:55:53;;;;;;;10.75;7.70;;;;;;;1.33;100.00;98815.19;1704683;84;21063;-61
2022/02/03 07:58:19;;;;;;;10.75;7.33;;;;;;;1.35;100.00;98815.75;1711251;84;21078;-61
2022/02/03 08:00:46;;;;;;;;;;;;;;;1.38;100.00;98826.04;1713462;83;21071;-59
2022/02/03 08:03:14;;;;;;;7.70;5.72;;;;;;;1.38;100.00;98822.80;1710916;83;20452;-60
2022/02/03 08:05:46;;;;;;;6.75;5.05;;;;;;;1.37;100.00;98827.90;1710774;82;21090;-62
2022/02/03 08:08:19;;;;;;;7.60;4.50;;;;;;;1.36;100.00;98827.60;1702190;84;21059;-60
2022/02/03 08:10:49;;;;;;;8.28;5.30;;;;;;;1.30;100.00;98829.89;1696703;84;21074;-60
2022/02/03 08:13:14;;;;;;;7.55;5.03;;;;;;;1.32;100.00;98833.66;1697200;83;21021;-60
2022/02/03 08:15:40;;;;;;;7.53;5.10;;;;;;;1.32;100.00;98842.52;1696465;83;21594;-61
2022/02/03 08:18:11;;;;;;;7.80;5.05;;;;;;;1.37;100.00;98844.52;1663192;86;21065;-60
2022/02/03 08:20:46;;;;;;;7.50;4.95;;;;;;;1.38;100.00;98843.47;1663277;85;21906;-59
2022/02/03 08:26:05;;;;;;;8.80;5.80;;;;;;;1.26;100.00;98848.00;1663274;86;21101;-59
2022/02/03 08:31:06;;;;;;;7.60;5.50;;;;;;;1.05;100.00;98855.28;1678623;83;21062;-60
2022/02/03 08:33:32;;;;;;;7.95;5.42;;;;;;;0.99;100.00;98861.84;1699193;84;21046;-61
2022/02/03 08:36:02;;;;;;;8.30;5.58;;;;;;;1.00;100.00;98859.47;1699559;84;21038;-60
2022/02/03 08:38:46;;;;;;;6.05;4.45;;;;;;;1.06;100.00;98864.44;1699299;84;20989;-61
2022/02/03 08:41:02;;;;;;;5.90;4.50;;;;;;;1.15;100.00;98863.56;1707077;84;21019;-60
2022/02/03 08:43:31;;;;;;;6.17;4.45;;;;;;;1.10;100.00;98874.97;1707890;83;20996;-61
2022/02/03 08:45:59;;;;;;;5.53;4.10;;;;;;;0.99;100.00;98879.27;1700033;84;21549;-60
2022/02/03 08:48:26;;;;;;;7.80;5.10;;;;;;;0.97;100.00;98881.89;1699799;84;21011;-61
2022/02/03 08:50:53;;;;;;;6.70;4.65;;;;;;;0.95;100.00;98878.64;1700576;84;21097;-60
2022/02/03 08:53:33;;;;;;;5.97;4.70;;;;;;;1.02;100.00;98880.69;1701487;83;20971;-60
2022/02/03 08:56:43;;;;;;;6.08;4.47;;;;;;;1.06;100.00;98887.23;1705868;84;21095;-60
2022/02/03 09:36:30;;;;;;;7.87;5.60;;;;;;;0.84;100.00;98931.16;1704380;84;21019;-60
2022/02/03 09:41:27;;;;;;;8.00;5.92;;;;;;;0.85;100.00;98935.45;1711192;84;21028;-59
2022/02/03 09:52:21;;;;;;;8.85;6.58;;;;;;;1.03;100.00;98945.28;1702831;83;21027;-60
2022/02/03 09:54:48;;;;;;;11.75;8.05;;;;;;;0.99;100.00;98944.14;1708586;82;21529;-60
2022/02/03 09:59:57;;;;;;;10.40;6.20;;;;;;;0.90;100.00;98949.51;1719202;83;21046;-60
2022/02/03 10:02:22;;;;;;;11.18;7.03;;;;;;;0.82;100.00;98968.06;1708772;83;21533;-60
2022/02/03 10:04:49;;;;;;;10.38;7.22;;;;;;;0.71;100.00;98967.48;1717954;82;21485;-60
2022/02/03 10:07:24;;;;;;;10.68;7.10;;;;;;;0.59;100.00;98968.50;1659216;86;21102;-60
2022/02/03 10:09:54;;;;;;;9.98;6.70;;;;;;;0.54;100.00;98976.38;1709065;82;21024;-61
2022/02/03 10:12:35;;;;;;;10.32;7.22;;;;;;;0.55;100.00;98976.69;1708402;83;21034;-60
2022/02/03 10:15:02;;;;;;;10.78;7.08;;;;;;;0.48;100.00;98982.13;1705504;82;21015;-60
2022/02/03 10:17:45;;;;;;;9.68;6.10;;;;;;;0.45;100.00;98983.41;1701641;83;21017;-60
2022/02/03 10:20:16;;;;;;;10.45;6.85;;;;;;;0.45;100.00;98986.08;1702177;84;21129;-60
2022/02/03 10:22:56;;;;;;;10.40;7.08;;;;;;;0.45;100.00;98987.94;1711168;84;21058;-60
2022/02/03 10:25:34;;;;;;;10.68;7.22;;;;;;;0.44;100.00;98988.45;1702398;82;21098;-60
2022/02/03 10:28:05;;;;;;;10.78;7.50;;;;;;;0.37;100.00;98986.89;1697045;83;21664;-60
2022/02/03 10:31:00;;;;;;;11.53;7.58;;;;;;;0.37;100.00;98988.23;1697115;84;21596;-60
2022/02/03 10:33:06;;;;;;;11.40;7.70;;;;;;;0.37;100.00;99002.44;1716120;83;21026;-60
2022/02/03 10:35:42;;;;;;;10.88;6.53;;;;;;;0.37;100.00;98992.25;1688055;84;21067;-60
2022/02/03 10:55:03;;;;;;;12.15;7.55;;;;;;;-0.06;100.00;99025.75;1697832;84;21569;-59
2022/02/03 11:00:40;;;;;;;11.15;7.92;;;;;;;-0.08;100.00;99029.17;1677717;84;21601;-59
2022/02/03 11:08:21;;;;;;;12.28;7.95;;;;;;;0.07;100.00;99028.83;1641929;87;21100;-58
2022/02/03 11:10:49;;;;;;;11.63;8.00;;;;;;;0.12;100.00;99045.03;1651640;86;21095;-59
2022/02/03 11:13:14;;;;;;;13.58;8.38;;;;;;;0.20;100.00;99040.73;1668914;86;21133;-59
2022/02/03 11:15:41;;;;;;;12.25;7.72;;;;;;;0.23;100.00;99037.09;1668674;84;21489;-60
2022/02/03 11:18:09;;;;;;;11.57;7.62;;;;;;;0.25;100.00;99035.00;1708985;84;21125;-60
2022/02/03 11:20:40;;;;;;;13.35;9.23;;;;;;;0.25;100.00;99040.90;1686913;84;21092;-59
2022/02/03 11:23:23;;;;;;;12.10;8.75;;;;;;;0.23;100.00;99046.98;1695893;84;21526;-61
2022/02/03 11:33:43;;;;;;;13.15;10.23;;;;;;;0.14;100.00;99052.34;1705578;84;21086;-61
2022/02/03 11:39:32;;;;;;;14.87;9.35;;;;;;;0.05;100.00;99058.48;1681161;85;21089;-60
2022/02/03 11:47:52;;;;;;;17.30;10.82;;;;;;;-0.06;100.00;99062.69;1710015;84;21635;-61
2022/02/03 12:01:03;;;;;;;13.18;9.48;;;;;;;-0.26;100.00;99075.42;1710426;83;21050;-59
2022/02/03 12:04:10;;;;;;;13.68;9.30;;;;;;;-0.28;100.00;99076.14;1688706;84;21099;-61
2022/02/03 12:12:54;;;;;;;12.68;8.15;;;;;;;-0.22;100.00;99083.84;1663902;84;21050;-59
2022/02/03 12:20:48;;;;;;;12.50;8.08;;;;;;;-0.28;100.00;99094.05;1711555;82;21504;-60
2022/02/03 12:26:30;;;;;;;11.48;7.22;;;;;;;-0.24;100.00;99114.80;1711327;84;21496;-62
2022/02/03 12:29:02;;;;;;;12.70;8.60;;;;;;;-0.21;100.00;99121.56;1686228;84;21065;-60
2022/02/03 12:45:18;;;;;;;10.28;6.65;;;;;;;-0.21;100.00;99127.73;1708682;82;21035;-59
2022/02/03 12:47:44;;;;;;;12.53;7.55;;;;;;;-0.25;100.00;99141.23;1709540;84;21065;-60
2022/02/03 12:50:18;;;;;;;11.43;7.65;;;;;;;-0.24;100.00;99138.88;1702477;83;21043;-60
2022/02/03 12:52:45;;;;;;;11.25;8.23;;;;;;;-0.24;100.00;99148.75;1702750;83;21102;-60
2022/02/03 12:55:35;;;;;;;11.78;8.45;;;;;;;-0.25;100.00;99157.83;1703009;82;21126;-60
2022/02/03 12:58:11;;;;;;;12.33;8.43;;;;;;;-0.22;100.00;99158.73;1695713;84;21018;-59
2022/02/03 13:00:46;;;;;;;11.55;8.20;;;;;;;-0.21;100.00;99157.16;1685186;84;21047;-59
2022/02/03 13:03:13;;;;;;;12.37;7.87;;;;;;;-0.26;100.00;99161.53;1710523;84;21553;-60
2022/02/03 13:05:43;;;;;;;13.28;8.50;;;;;;;-0.33;100.00;99170.12;1696497;84;21058;-60
2022/02/03 13:08:11;;;;;;;11.63;6.35;;;;;;;-0.36;100.00;99164.69;1690485;84;21015;-60
2022/02/03 13:10:39;;;;;;;12.88;9.10;;;;;;;-0.37;100.00;99168.91;1710585;82;21672;-59
2022/02/03 13:13:23;;;;;;;16.67;11.90;;;;;;;-0.40;100.00;99175.52;1697386;84;21019;-60
2022/02/03 13:15:46;;;;;;;22.40;11.53;;;;;;;-0.43;100.00;99179.95;1707039;84;21464;-59
2022/02/03 13:18:24;;;;;;;;;;;;;;;-0.47;100.00;99181.41;1713822;84;21071;-59
2022/02/03 13:20:58;;;;;;;13.70;8.73;;;;;;;-0.57;100.00;99193.88;1702187;82;20134;-60
2022/02/03 13:23:21;;;;;;;15.25;9.08;;;;;;;-0.63;100.00;99194.75;1696971;84;21076;-59
2022/02/03 13:26:01;;;;;;;13.68;8.73;;;;;;;-0.66;100.00;99200.52;1697064;84;21052;-60
2022/02/03 13:28:37;;;;;;;13.13;8.13;;;;;;;-0.67;100.00;99206.89;1697095;84;21111;-59
2022/02/03 13:31:16;;;;;;;17.32;10.32;;;;;;;-0.68;100.00;99214.63;1704284;84;21083;-60
2022/02/03 13:33:43;;;;;;;19.90;12.53;;;;;;;-0.68;100.00;99220.48;1692647;83;21062;-59
2022/02/03 13:36:12;;;;;;;20.65;11.57;;;;;;;-0.70;100.00;99226.55;1655503;83;21094;-59
2022/02/03 13:41:16;;;;;;;17.98;10.35;;;;;;;-0.76;100.00;99227.40;1711855;83;21050;-59
2022/02/03 13:43:42;;;;;;;15.18;9.30;;;;;;;-0.83;100.00;99229.27;1672967;85;21130;-59
2022/02/03 13:46:10;;;;;;;14.50;9.85;;;;;;;-0.88;100.00;99219.72;1691437;83;21039;-59
2022/02/03 13:48:38;;;;;;;15.63;9.53;;;;;;;-0.95;100.00;99240.29;1710661;82;21597;-59
2022/02/03 13:51:09;;;;;;;12.10;7.45;;;;;;;-0.99;100.00;99226.53;1689963;83;21096;-60
2022/02/03 13:53:40;;;;;;;16.90;10.45;;;;;;;-0.98;100.00;99228.18;1719231;83;21485;-59
2022/02/03 14:18:59;;;;;;;18.73;10.80;;;;;;;-1.19;100.00;99242.62;1702259;84;21048;-58
2022/02/03 14:21:16;;;;;;;17.00;10.38;;;;;;;-1.24;100.00;99238.40;1702559;83;21471;-58
2022/02/03 14:29:06;;;;;;;19.55;10.55;;;;;;;-1.24;100.00;99246.41;1704981;83;21638;-59
2022/02/03 14:31:33;;;;;;;19.82;10.95;;;;;;;-1.28;100.00;99256.41;1719142;83;21511;-59
2022/02/03 14:34:05;;;;;;;24.18;14.25;;;;;;;-1.27;100.00;99259.36;1707989;83;21039;-59
2022/02/03 14:36:31;;;;;;;19.45;13.43;;;;;;;-1.26;100.00;99257.00;1687580;84;21010;-59
2022/02/03 14:39:23;;;;;;;24.57;13.22;;;;;;;-1.31;100.00;99268.84;1675862;85;21030;-59
2022/02/03 14:41:31;;;;;;;31.07;16.97;;;;;;;-1.40;100.00;99271.39;1673398;85;21002;-59
2022/02/03 14:43:53;;;;;;;26.23;15.30;;;;;;;-1.49;100.00;99271.30;1679899;84;21551;-59
2022/02/03 14:46:20;;;;;;;;;;;;;;;-1.55;100.00;99275.59;1705199;84;20996;-58
2022/02/03 14:48:47;;;;;;;23.85;14.35;;;;;;;-1.63;100.00;99281.95;1687619;85;20123;-59
2022/02/03 14:51:15;;;;;;;21.77;12.40;;;;;;;-1.75;100.00;99286.78;1702427;84;20972;-59
2022/02/03 14:53:53;;;;;;;18.02;10.93;;;;;;;-1.79;100.00;99285.55;1674518;84;21091;-58
2022/02/03 14:59:01;;;;;;;17.87;10.30;;;;;;;-1.86;100.00;99298.88;1675861;85;21109;-59
2022/02/03 15:01:32;;;;;;;19.60;10.90;;;;;;;-1.87;100.00;99311.08;1676026;85;20978;-59
2022/02/03 15:04:03;;;;;;;20.48;10.48;;;;;;;-1.91;100.00;99311.98;1677729;84;21057;-59
2022/02/03 15:06:37;;;;;;;18.27;10.82;;;;;;;-1.95;100.00;99312.62;1676211;85;21022;-59
2022/02/03 15:09:14;;;;;;;11.73;7.12;;;;;;;-1.97;100.00;99315.47;1675513;85;21613;-59
2022/02/03 15:11:42;;;;;;;16.25;9.90;;;;;;;-1.97;100.00;99319.98;1675144;85;20986;-59
2022/02/03 15:13:55;;;;;;;31.87;21.65;;;;;;;-2.01;100.00;99324.39;1675075;83;21443;-59
2022/02/03 15:16:21;;;;;;;19.07;10.35;;;;;;;-2.02;100.00;99323.27;1675649;85;21406;-59
2022/02/03 15:18:48;;;;;;;26.68;17.15;;;;;;;-2.04;100.00;99331.97;1682702;85;21064;-58
2022/02/03 15:21:15;;;;;;;17.35;11.75;;;;;;;-2.03;100.00;99337.12;1690579;85;21040;-59
2022/02/03 15:23:41;;;;;;;13.25;8.23;;;;;;;-2.06;100.00;99333.52;1678134;84;21014;-58
2022/02/03 15:26:09;;;;;;;15.88;9.35;;;;;;;-2.06;100.00;99332.19;1676062;85;20998;-59
2022/02/03 15:28:36;;;;;;;15.13;8.93;;;;;;;-1.99;100.00;99333.54;1676056;85;21062;-58
2022/02/03 15:31:03;;;;;;;13.72;8.10;;;;;;;-1.97;100.00;99334.14;1675859;85;20967;-58
2022/02/03 15:33:30;;;;;;;14.13;8.65;;;;;;;-1.98;100.00;99342.37;1690641;83;21031;-58
2022/02/03 15:36:01;;;;;;;13.62;8.08;;;;;;;-2.00;100.00;99345.22;1710285;82;21010;-58
2022/02/03 15:38:27;;;;;;;12.15;7.47;;;;;;;-2.01;100.00;99348.91;1709599;84;21077;-58
2022/02/03 15:40:55;;;;;;;13.25;6.92;;;;;;;-2.06;100.00;99352.70;1709710;83;21097;-58
2022/02/03 15:43:26;;;;;;;11.45;6.55;;;;;;;-2.14;100.00;99343.53;1712236;83;21019;-57
2022/02/03 15:45:54;;;;;;;10.68;6.42;;;;;;;-2.21;100.00;99353.34;1714682;83;21055;-58
2022/02/03 15:51:24;;;;;;;10.20;6.22;;;;;;;-2.34;100.00;99356.80;1711721;83;21019;-58
2022/02/03 15:56:48;;;;;;;11.73;6.95;;;;;;;-2.40;100.00;99360.23;1705098;84;21510;-59
2022/02/03 16:13:19;;;;;;;8.88;5.75;;;;;;;-2.45;100.00;99388.52;1716350;83;21016;-58
2022/02/03 16:17:17;;;;;;;9.58;5.05;;;;;;;-2.69;100.00;99399.94;1716463;83;21005;-58
2022/02/03 16:19:54;;;;;;;17.75;10.18;;;;;;;-2.71;100.00;99391.83;1714280;83;21060;-58
2022/02/03 16:24:59;;;;;;;4.60;2.80;;;;;;;-2.74;100.00;99403.70;1709138;84;21642;-59
2022/02/03 16:41:51;;;;;;;8.80;5.00;;;;;;;-2.96;100.00;99415.42;1714642;83;20987;-59
2022/02/03 16:52:24;;;;;;;7.08;3.72;;;;;;;-3.06;100.00;99426.41;1717312;81;21042;-57
2022/02/03 16:54:35;;;;;;;7.10;3.40;;;;;;;-3.03;100.00;99423.86;1746805;81;21121;-57
2022/02/03 16:57:10;;;;;;;4.80;2.72;;;;;;;-3.01;100.00;99435.96;1734651;81;21018;-59
2022/02/03 16:59:34;;;;;;;6.30;3.22;;;;;;;-3.04;100.00;99436.85;1731905;81;21561;-58
2022/02/03 17:02:00;;;;;;;8.60;5.37;;;;;;;-3.03;100.00;99436.67;1749871;81;20951;-56
2022/02/03 17:04:26;;;;;;;24.65;12.53;;;;;;;-3.03;100.00;99445.99;1753410;81;21050;-58
2022/02/03 17:06:52;;;;;;;10.50;5.95;;;;;;;-3.01;100.00;99441.79;1755254;81;21435;-58
2022/02/03 17:09:19;;;;;;;14.75;8.10;;;;;;;-2.98;100.00;99454.75;1755630;81;21522;-59
2022/02/03 17:11:45;;;;;;;11.90;6.62;;;;;;;-2.96;100.00;99463.86;1736320;81;21447;-59
2022/02/03 17:14:11;;;;;;;9.93;6.45;;;;;;;-2.94;100.00;99457.85;1755343;81;21581;-58
2022/02/03 17:16:38;;;;;;;10.82;5.85;;;;;;;-2.91;100.00;99464.95;1746478;81;21453;-57
2022/02/03 17:19:05;;;;;;;9.18;5.28;;;;;;;-2.88;100.00;99466.40;1742940;81;21553;-58
2022/02/03 17:21:33;;;;;;;8.83;4.92;;;;;;;-2.86;100.00;99466.52;1746962;81;21533;-58
2022/02/03 17:24:01;;;;;;;9.20;5.30;;;;;;;-2.86;100.00;99471.84;1746392;81;21035;-58
2022/02/03 17:26:45;;;;;;;8.03;5.15;;;;;;;-2.90;100.00;99479.89;1738949;81;21069;-58
2022/02/03 17:29:14;;;;;;;10.10;5.45;;;;;;;-2.91;100.00;99472.11;1745329;81;21073;-58
2022/02/03 17:52:13;;;;;;;9.15;3.98;;;;;;;-2.88;100.00;99477.05;1749836;81;21550;-57
2022/02/03 17:52:28;;;;;;;10.95;6.83;;;;;;;-2.98;100.00;99473.39;1744586;81;20980;-57
2022/02/03 18:04:48;;;;;;;7.92;4.20;;;;;;;-2.95;100.00;99470.84;1726177;82;21047;-57
2022/02/03 18:17:19;;;;;;;6.33;3.17;;;;;;;-2.98;100.00;99480.05;1745035;82;21025;-57
2022/02/03 18:30:17;;;;;;;5.85;3.17;;;;;;;-3.08;100.00;99477.69;1746474;82;21530;-57
2022/02/03 18:46:29;;;;;;;9.15;5.47;;;;;;;-3.08;100.00;99480.85;1741162;81;21155;-57
2022/02/03 18:51:33;;;;;;;6.80;4.03;;;;;;;-3.13;100.00;99491.27;1733316;82;21070;-57
2022/02/03 18:54:03;;;;;;;6.20;4.03;;;;;;;-3.17;100.00;99492.16;1722753;82;21106;-57
2022/02/03 19:01:42;;;;;;;4.97;2.12;;;;;;;-3.12;100.00;99499.05;1751099;82;21498;-58
2022/02/03 19:09:49;;;;;;;5.12;2.47;;;;;;;-3.15;100.00;99495.44;1740837;82;21019;-56
2022/02/03 20:04:11;;;;;;;7.75;3.12;;;;;;;-3.25;100.00;99516.22;1708071;83;20976;-58
2022/02/03 20:06:53;;;;;;;7.78;3.60;;;;;;;-3.23;100.00;99514.72;1699281;83;21501;-58
2022/02/03 20:09:29;;;;;;;7.83;3.58;;;;;;;-3.20;100.00;99522.33;1720291;82;21518;-58
2022/02/03 20:11:50;;;;;;;;;;;;;;;-3.20;100.00;99503.19;1717411;83;21037;-58
2022/02/03 20:14:19;;;;;;;9.28;3.15;;;;;;;-3.23;100.00;99509.39;1722501;83;20088;-58
2022/02/03 20:16:46;;;;;;;9.68;4.08;;;;;;;-3.31;100.00;99514.33;1720528;83;21046;-59
2022/02/03 20:19:13;;;;;;;;;;;;;;;-3.31;100.00;99507.67;1698728;83;21097;-59
2022/02/03 20:21:41;;;;;;;13.05;6.22;;;;;;;-3.28;100.00;99502.47;1701901;82;20114;-59
2022/02/03 20:24:08;;;;;;;10.05;4.45;;;;;;;-3.33;100.00;99504.89;1703388;83;21620;-58
2022/02/03 20:26:35;;;;;;;8.48;4.30;;;;;;;-3.35;100.00;99494.92;1715062;83;21477;-58
2022/02/03 20:29:02;;;;;;;8.75;3.85;;;;;;;-3.34;100.00;99500.57;1705140;83;21576;-58
2022/02/03 20:31:29;;;;;;;9.95;4.05;;;;;;;-3.33;100.00;99500.89;1723291;83;21489;-58
2022/02/03 20:33:55;;;;;;;7.75;3.47;;;;;;;-3.35;100.00;99503.73;1716253;83;21486;-58
2022/02/03 20:36:21;;;;;;;8.28;3.72;;;;;;;-3.37;100.00;99500.95;1707285;83;21053;-58
2022/02/03 20:38:51;;;;;;;5.35;2.40;;;;;;;-3.38;100.00;99495.30;1710414;83;20985;-58
2022/02/03 20:41:20;;;;;;;5.12;2.17;;;;;;;-3.40;100.00;99492.81;1705031;83;21564;-59
2022/02/03 20:43:46;;;;;;;8.60;4.28;;;;;;;-3.42;100.00;99490.03;1711497;83;20970;-59
2022/02/03 20:46:13;;;;;;;6.20;3.25;;;;;;;-3.45;100.00;99489.08;1709458;83;21063;-59
2022/02/03 20:48:46;;;;;;;6.05;2.85;;;;;;;-3.48;100.00;99484.97;1727073;82;21051;-58
2022/02/03 20:51:13;;;;;;;5.45;2.58;;;;;;;-3.53;100.00;99477.53;1751664;82;20989;-58
2022/02/03 20:53:41;;;;;;;4.37;2.33;;;;;;;-3.52;100.00;99489.84;1741254;82;20972;-58
2022/02/03 20:56:07;;;;;;;4.70;2.62;;;;;;;-3.54;100.00;99483.86;1737784;82;21060;-59
2022/02/03 20:58:34;;;;;;;5.20;2.42;;;;;;;-3.53;100.00;99478.03;1734473;82;20950;-58
2022/02/03 21:01:08;;;;;;;4.40;2.33;;;;;;;-3.53;100.00;99482.03;1731687;82;21048;-58
2022/02/03 21:03:35;;;;;;;4.15;2.22;;;;;;;-3.55;100.00;99486.73;1740171;82;21052;-58
2022/02/03 21:05:57;;;;;;;5.30;2.90;;;;;;;-3.55;100.00;99480.08;1746292;82;21041;-58
2022/02/03 21:08:30;;;;;;;5.83;2.72;;;;;;;-3.54;100.00;99486.52;1741010;82;21008;-58
2022/02/03 21:10:52;;;;;;;5.50;2.52;;;;;;;-3.52;100.00;99493.00;1717772;82;21048;-58
2022/02/03 21:13:19;;;;;;;;;;;;;;;-3.52;100.00;99493.00;1742154;82;21468;-57
2022/02/03 21:15:45;;;;;;;5.90;2.65;;;;;;;-3.52;100.00;99500.48;1742945;82;20384;-58
2022/02/03 21:18:15;;;;;;;6.47;3.15;;;;;;;-3.52;100.00;99502.31;1736612;82;20992;-58
2022/02/03 21:20:41;;;;;;;5.45;3.17;;;;;;;-3.51;100.00;99492.80;1743650;82;21112;-58
2022/02/03 21:23:09;;;;;;;6.72;3.33;;;;;;;-3.48;100.00;99498.77;1733441;82;20956;-58
2022/02/03 21:25:45;;;;;;;6.42;3.30;;;;;;;-3.45;100.00;99489.91;1731193;82;21068;-58
2022/02/03 21:28:16;;;;;;;9.48;4.00;;;;;;;-3.43;100.00;99496.36;1737798;82;20996;-60